sensor_id;sensor_type;location;lat;lon;timestamp;P1;durP1;ratioP1;P2;durP2;ratioP2
76935;SDS011;65881;52.438;16.744;2023-05-16T00:00:51;16.70;;;13.00;;
76935;SDS011;65881;52.438;16.744;2023-05-16T00:03:18;16.30;;;12.75;;
76935;SDS011;65881;52.438;16.744;2023-05-16T00:05:44;17.17;;;12.45;;
76935;SDS011;65881;52.438;16.744;2023-05-16T00:08:10;15.70;;;12.02;;
76935;SDS011;65881;52.438;16.744;2023-05-16T00:10:36;19.27;;;13.68;;
76935;SDS011;65881;52.438;16.744;2023-05-16T00:13:03;14.70;;;11.60;;
76935;SDS011;65881;52.438;16.744;2023-05-16T00:15:31;17.30;;;13.27;;
76935;SDS011;65881;52.438;16.744;2023-05-16T00:17:57;17.73;;;13.57;;
76935;SDS011;65881;52.438;16.744;2023-05-16T00:20:24;16.85;;;12.68;;
76935;SDS011;65881;52.438;16.744;2023-05-16T00:22:51;18.55;;;13.65;;
76935;SDS011;65881;52.438;16.744;2023-05-16T00:25:18;14.30;;;12.68;;
76935;SDS011;65881;52.438;16.744;2023-05-16T00:27:43;17.83;;;13.57;;
76935;SDS011;65881;52.438;16.744;2023-05-16T00:30:09;15.00;;;11.65;;
76935;SDS011;65881;52.438;16.744;2023-05-16T00:32:37;15.70;;;12.20;;
76935;SDS011;65881;52.438;16.744;2023-05-16T00:35:02;16.05;;;13.30;;
76935;SDS011;65881;52.438;16.744;2023-05-16T00:37:28;13.90;;;11.63;;
76935;SDS011;65881;52.438;16.744;2023-05-16T00:39:54;14.45;;;11.85;;
76935;SDS011;65881;52.438;16.744;2023-05-16T00:42:21;17.17;;;12.77;;
76935;SDS011;65881;52.438;16.744;2023-05-16T00:44:47;16.70;;;11.85;;
76935;SDS011;65881;52.438;16.744;2023-05-16T00:47:13;13.60;;;12.20;;
76935;SDS011;65881;52.438;16.744;2023-05-16T00:49:38;16.73;;;12.27;;
76935;SDS011;65881;52.438;16.744;2023-05-16T00:52:04;15.45;;;13.63;;
76935;SDS011;65881;52.438;16.744;2023-05-16T00:54:30;16.45;;;11.75;;
76935;SDS011;65881;52.438;16.744;2023-05-16T00:56:56;14.05;;;12.05;;
76935;SDS011;65881;52.438;16.744;2023-05-16T00:59:25;15.45;;;12.48;;
76935;SDS011;65881;52.438;16.744;2023-05-16T01:01:51;14.43;;;12.93;;
76935;SDS011;65881;52.438;16.744;2023-05-16T01:04:17;15.55;;;12.82;;
76935;SDS011;65881;52.438;16.744;2023-05-16T01:06:43;15.70;;;13.57;;
76935;SDS011;65881;52.438;16.744;2023-05-16T01:09:10;11.98;;;10.75;;
76935;SDS011;65881;52.438;16.744;2023-05-16T01:11:42;13.23;;;11.40;;
76935;SDS011;65881;52.438;16.744;2023-05-16T01:23:30;14.20;;;11.13;;
76935;SDS011;65881;52.438;16.744;2023-05-16T01:25:44;14.73;;;11.60;;
76935;SDS011;65881;52.438;16.744;2023-05-16T01:28:14;16.77;;;12.75;;
76935;SDS011;65881;52.438;16.744;2023-05-16T01:30:42;13.40;;;12.00;;
76935;SDS011;65881;52.438;16.744;2023-05-16T01:33:08;14.80;;;11.95;;
76935;SDS011;65881;52.438;16.744;2023-05-16T01:35:46;14.98;;;12.77;;
76935;SDS011;65881;52.438;16.744;2023-05-16T01:38:23;13.85;;;12.20;;
76935;SDS011;65881;52.438;16.744;2023-05-16T01:40:56;14.65;;;11.38;;
76935;SDS011;65881;52.438;16.744;2023-05-16T01:43:35;15.07;;;11.80;;
76935;SDS011;65881;52.438;16.744;2023-05-16T01:46:15;15.07;;;12.70;;
76935;SDS011;65881;52.438;16.744;2023-05-16T01:49:09;15.00;;;12.32;;
76935;SDS011;65881;52.438;16.744;2023-05-16T01:51:32;17.38;;;11.20;;
76935;SDS011;65881;52.438;16.744;2023-05-16T01:54:05;14.40;;;12.02;;
76935;SDS011;65881;52.438;16.744;2023-05-16T01:56:35;17.25;;;12.27;;
76935;SDS011;65881;52.438;16.744;2023-05-16T01:59:01;14.85;;;12.98;;
76935;SDS011;65881;52.438;16.744;2023-05-16T02:01:29;15.93;;;12.30;;
76935;SDS011;65881;52.438;16.744;2023-05-16T02:03:55;17.05;;;13.13;;
76935;SDS011;65881;52.438;16.744;2023-05-16T02:06:22;13.95;;;10.80;;
76935;SDS011;65881;52.438;16.744;2023-05-16T02:08:49;15.50;;;11.93;;
76935;SDS011;65881;52.438;16.744;2023-05-16T02:11:17;16.40;;;13.13;;
76935;SDS011;65881;52.438;16.744;2023-05-16T02:13:43;16.98;;;12.85;;
76935;SDS011;65881;52.438;16.744;2023-05-16T02:16:09;14.52;;;12.90;;
76935;SDS011;65881;52.438;16.744;2023-05-16T02:18:37;13.60;;;10.85;;
76935;SDS011;65881;52.438;16.744;2023-05-16T02:21:03;15.68;;;11.52;;
76935;SDS011;65881;52.438;16.744;2023-05-16T02:23:29;13.82;;;11.18;;
76935;SDS011;65881;52.438;16.744;2023-05-16T02:25:54;13.38;;;11.90;;
76935;SDS011;65881;52.438;16.744;2023-05-16T02:28:20;14.27;;;12.00;;
76935;SDS011;65881;52.438;16.744;2023-05-16T02:30:54;13.60;;;11.90;;
76935;SDS011;65881;52.438;16.744;2023-05-16T02:33:24;13.85;;;11.32;;
76935;SDS011;65881;52.438;16.744;2023-05-16T02:35:51;14.50;;;11.70;;
76935;SDS011;65881;52.438;16.744;2023-05-16T02:38:17;13.27;;;11.52;;
76935;SDS011;65881;52.438;16.744;2023-05-16T02:40:45;14.35;;;11.68;;
76935;SDS011;65881;52.438;16.744;2023-05-16T02:43:11;12.32;;;10.63;;
76935;SDS011;65881;52.438;16.744;2023-05-16T02:45:37;13.52;;;12.13;;
76935;SDS011;65881;52.438;16.744;2023-05-16T02:48:02;14.00;;;11.57;;
76935;SDS011;65881;52.438;16.744;2023-05-16T02:50:28;13.20;;;10.82;;
76935;SDS011;65881;52.438;16.744;2023-05-16T02:52:54;15.20;;;11.43;;
76935;SDS011;65881;52.438;16.744;2023-05-16T02:55:19;13.98;;;11.65;;
76935;SDS011;65881;52.438;16.744;2023-05-16T02:57:45;16.45;;;13.13;;
76935;SDS011;65881;52.438;16.744;2023-05-16T03:00:11;14.07;;;11.07;;
76935;SDS011;65881;52.438;16.744;2023-05-16T03:02:38;15.05;;;12.75;;
76935;SDS011;65881;52.438;16.744;2023-05-16T03:05:04;14.70;;;11.82;;
76935;SDS011;65881;52.438;16.744;2023-05-16T03:07:30;12.63;;;10.77;;
76935;SDS011;65881;52.438;16.744;2023-05-16T03:09:57;17.10;;;11.23;;
76935;SDS011;65881;52.438;16.744;2023-05-16T03:12:22;14.13;;;12.25;;
76935;SDS011;65881;52.438;16.744;2023-05-16T03:14:48;17.38;;;12.77;;
76935;SDS011;65881;52.438;16.744;2023-05-16T03:17:16;15.68;;;12.85;;
76935;SDS011;65881;52.438;16.744;2023-05-16T03:19:42;16.33;;;12.43;;
76935;SDS011;65881;52.438;16.744;2023-05-16T03:22:07;15.30;;;12.15;;
76935;SDS011;65881;52.438;16.744;2023-05-16T03:24:34;15.00;;;11.82;;
76935;SDS011;65881;52.438;16.744;2023-05-16T03:27:00;12.90;;;11.23;;
76935;SDS011;65881;52.438;16.744;2023-05-16T03:29:27;17.60;;;11.57;;
76935;SDS011;65881;52.438;16.744;2023-05-16T03:31:53;14.57;;;12.05;;
76935;SDS011;65881;52.438;16.744;2023-05-16T03:34:19;15.27;;;12.38;;
76935;SDS011;65881;52.438;16.744;2023-05-16T03:36:45;15.13;;;10.77;;
76935;SDS011;65881;52.438;16.744;2023-05-16T03:39:12;13.70;;;11.00;;
76935;SDS011;65881;52.438;16.744;2023-05-16T03:41:38;15.30;;;10.50;;
76935;SDS011;65881;52.438;16.744;2023-05-16T03:44:04;11.52;;;9.70;;
76935;SDS011;65881;52.438;16.744;2023-05-16T03:46:32;14.43;;;10.85;;
76935;SDS011;65881;52.438;16.744;2023-05-16T03:48:59;15.02;;;11.60;;
76935;SDS011;65881;52.438;16.744;2023-05-16T03:51:26;14.35;;;11.75;;
76935;SDS011;65881;52.438;16.744;2023-05-16T03:53:52;15.45;;;12.13;;
76935;SDS011;65881;52.438;16.744;2023-05-16T03:56:18;14.70;;;11.95;;
76935;SDS011;65881;52.438;16.744;2023-05-16T03:58:45;15.50;;;12.20;;
76935;SDS011;65881;52.438;16.744;2023-05-16T04:01:11;16.92;;;12.70;;
76935;SDS011;65881;52.438;16.744;2023-05-16T04:03:37;14.45;;;12.18;;
76935;SDS011;65881;52.438;16.744;2023-05-16T04:06:03;16.33;;;12.88;;
76935;SDS011;65881;52.438;16.744;2023-05-16T04:08:29;16.08;;;12.50;;
76935;SDS011;65881;52.438;16.744;2023-05-16T04:10:55;15.02;;;13.35;;
76935;SDS011;65881;52.438;16.744;2023-05-16T04:13:21;18.67;;;13.02;;
76935;SDS011;65881;52.438;16.744;2023-05-16T04:15:47;18.42;;;12.88;;
76935;SDS011;65881;52.438;16.744;2023-05-16T04:18:12;13.00;;;11.40;;
76935;SDS011;65881;52.438;16.744;2023-05-16T04:20:38;14.55;;;12.40;;
76935;SDS011;65881;52.438;16.744;2023-05-16T04:23:05;14.63;;;10.95;;
76935;SDS011;65881;52.438;16.744;2023-05-16T04:25:31;14.23;;;11.10;;
76935;SDS011;65881;52.438;16.744;2023-05-16T04:27:57;17.27;;;12.48;;
76935;SDS011;65881;52.438;16.744;2023-05-16T04:30:25;16.25;;;11.55;;
76935;SDS011;65881;52.438;16.744;2023-05-16T04:32:51;14.15;;;11.07;;
76935;SDS011;65881;52.438;16.744;2023-05-16T04:35:17;14.23;;;11.85;;
76935;SDS011;65881;52.438;16.744;2023-05-16T04:37:42;15.10;;;13.40;;
76935;SDS011;65881;52.438;16.744;2023-05-16T04:40:08;16.63;;;12.00;;
76935;SDS011;65881;52.438;16.744;2023-05-16T04:42:35;14.23;;;12.77;;
76935;SDS011;65881;52.438;16.744;2023-05-16T04:45:01;13.85;;;12.38;;
76935;SDS011;65881;52.438;16.744;2023-05-16T04:47:28;13.23;;;11.38;;
76935;SDS011;65881;52.438;16.744;2023-05-16T04:49:53;15.23;;;13.57;;
76935;SDS011;65881;52.438;16.744;2023-05-16T04:52:19;13.73;;;10.82;;
76935;SDS011;65881;52.438;16.744;2023-05-16T04:54:45;13.60;;;11.73;;
76935;SDS011;65881;52.438;16.744;2023-05-16T04:57:11;16.98;;;12.32;;
76935;SDS011;65881;52.438;16.744;2023-05-16T04:59:36;14.52;;;10.73;;
76935;SDS011;65881;52.438;16.744;2023-05-16T05:02:02;15.00;;;11.68;;
76935;SDS011;65881;52.438;16.744;2023-05-16T05:04:28;15.70;;;11.55;;
76935;SDS011;65881;52.438;16.744;2023-05-16T05:06:54;14.73;;;11.40;;
76935;SDS011;65881;52.438;16.744;2023-05-16T05:09:25;14.10;;;11.82;;
76935;SDS011;65881;52.438;16.744;2023-05-16T05:11:51;14.25;;;11.77;;
76935;SDS011;65881;52.438;16.744;2023-05-16T05:14:16;14.00;;;11.27;;
76935;SDS011;65881;52.438;16.744;2023-05-16T05:16:43;16.17;;;12.18;;
76935;SDS011;65881;52.438;16.744;2023-05-16T05:19:11;14.00;;;12.35;;
76935;SDS011;65881;52.438;16.744;2023-05-16T05:21:37;13.48;;;11.57;;
76935;SDS011;65881;52.438;16.744;2023-05-16T05:24:03;14.38;;;12.38;;
76935;SDS011;65881;52.438;16.744;2023-05-16T05:26:29;17.27;;;12.65;;
76935;SDS011;65881;52.438;16.744;2023-05-16T05:28:54;13.10;;;11.63;;
76935;SDS011;65881;52.438;16.744;2023-05-16T05:31:20;16.92;;;14.52;;
76935;SDS011;65881;52.438;16.744;2023-05-16T05:33:46;16.70;;;12.90;;
76935;SDS011;65881;52.438;16.744;2023-05-16T05:36:11;21.48;;;15.65;;
76935;SDS011;65881;52.438;16.744;2023-05-16T05:38:37;18.15;;;15.00;;
76935;SDS011;65881;52.438;16.744;2023-05-16T05:41:04;18.65;;;13.73;;
76935;SDS011;65881;52.438;16.744;2023-05-16T05:43:32;18.88;;;15.15;;
76935;SDS011;65881;52.438;16.744;2023-05-16T05:45:59;22.02;;;14.77;;
76935;SDS011;65881;52.438;16.744;2023-05-16T05:48:25;16.75;;;14.18;;
76935;SDS011;65881;52.438;16.744;2023-05-16T05:50:50;16.00;;;13.23;;
76935;SDS011;65881;52.438;16.744;2023-05-16T05:53:17;17.48;;;13.88;;
76935;SDS011;65881;52.438;16.744;2023-05-16T05:55:42;15.07;;;13.00;;
76935;SDS011;65881;52.438;16.744;2023-05-16T05:58:08;15.52;;;13.35;;
76935;SDS011;65881;52.438;16.744;2023-05-16T06:00:34;18.45;;;13.75;;
76935;SDS011;65881;52.438;16.744;2023-05-16T06:03:00;15.65;;;13.05;;
76935;SDS011;65881;52.438;16.744;2023-05-16T06:05:25;17.65;;;13.68;;
76935;SDS011;65881;52.438;16.744;2023-05-16T06:07:53;15.60;;;13.93;;
76935;SDS011;65881;52.438;16.744;2023-05-16T06:10:19;18.30;;;13.77;;
76935;SDS011;65881;52.438;16.744;2023-05-16T06:12:45;16.85;;;12.63;;
76935;SDS011;65881;52.438;16.744;2023-05-16T06:15:11;17.52;;;12.85;;
76935;SDS011;65881;52.438;16.744;2023-05-16T06:17:38;18.63;;;12.88;;
76935;SDS011;65881;52.438;16.744;2023-05-16T06:20:04;13.65;;;12.10;;
76935;SDS011;65881;52.438;16.744;2023-05-16T06:22:30;16.00;;;12.57;;
76935;SDS011;65881;52.438;16.744;2023-05-16T06:24:56;14.85;;;11.88;;
76935;SDS011;65881;52.438;16.744;2023-05-16T06:27:23;16.38;;;13.27;;
76935;SDS011;65881;52.438;16.744;2023-05-16T06:29:49;13.88;;;11.85;;
76935;SDS011;65881;52.438;16.744;2023-05-16T06:32:15;13.82;;;11.63;;
76935;SDS011;65881;52.438;16.744;2023-05-16T06:34:40;14.48;;;10.95;;
76935;SDS011;65881;52.438;16.744;2023-05-16T06:37:06;12.50;;;11.13;;
76935;SDS011;65881;52.438;16.744;2023-05-16T06:39:32;14.65;;;12.15;;
76935;SDS011;65881;52.438;16.744;2023-05-16T06:41:57;11.45;;;10.25;;
76935;SDS011;65881;52.438;16.744;2023-05-16T06:44:23;12.85;;;11.20;;
76935;SDS011;65881;52.438;16.744;2023-05-16T06:49:18;14.80;;;10.85;;
76935;SDS011;65881;52.438;16.744;2023-05-16T06:51:43;13.98;;;10.88;;
76935;SDS011;65881;52.438;16.744;2023-05-16T06:54:09;12.80;;;11.50;;
76935;SDS011;65881;52.438;16.744;2023-05-16T06:56:35;15.07;;;11.85;;
76935;SDS011;65881;52.438;16.744;2023-05-16T06:59:01;11.38;;;10.18;;
76935;SDS011;65881;52.438;16.744;2023-05-16T07:01:27;12.25;;;10.93;;
76935;SDS011;65881;52.438;16.744;2023-05-16T07:03:52;11.18;;;9.27;;
76935;SDS011;65881;52.438;16.744;2023-05-16T07:06:18;11.88;;;9.65;;
76935;SDS011;65881;52.438;16.744;2023-05-16T07:08:44;11.05;;;9.82;;
76935;SDS011;65881;52.438;16.744;2023-05-16T07:11:10;10.40;;;9.40;;
76935;SDS011;65881;52.438;16.744;2023-05-16T07:13:36;11.00;;;9.90;;
76935;SDS011;65881;52.438;16.744;2023-05-16T07:16:02;12.65;;;9.48;;
76935;SDS011;65881;52.438;16.744;2023-05-16T07:18:28;12.27;;;10.02;;
76935;SDS011;65881;52.438;16.744;2023-05-16T07:20:56;9.82;;;8.80;;
76935;SDS011;65881;52.438;16.744;2023-05-16T07:23:22;10.93;;;8.38;;
76935;SDS011;65881;52.438;16.744;2023-05-16T07:25:48;10.77;;;9.68;;
76935;SDS011;65881;52.438;16.744;2023-05-16T07:28:13;10.65;;;9.40;;
76935;SDS011;65881;52.438;16.744;2023-05-16T07:30:39;11.70;;;9.55;;
76935;SDS011;65881;52.438;16.744;2023-05-16T07:33:08;11.13;;;8.65;;
76935;SDS011;65881;52.438;16.744;2023-05-16T07:35:33;11.65;;;9.25;;
76935;SDS011;65881;52.438;16.744;2023-05-16T07:37:59;13.40;;;9.65;;
76935;SDS011;65881;52.438;16.744;2023-05-16T07:40:26;10.10;;;9.00;;
76935;SDS011;65881;52.438;16.744;2023-05-16T07:42:53;11.82;;;9.15;;
76935;SDS011;65881;52.438;16.744;2023-05-16T07:45:19;11.25;;;10.15;;
76935;SDS011;65881;52.438;16.744;2023-05-16T07:47:51;13.05;;;9.88;;
76935;SDS011;65881;52.438;16.744;2023-05-16T07:50:17;10.63;;;9.60;;
76935;SDS011;65881;52.438;16.744;2023-05-16T07:52:42;10.77;;;9.75;;
76935;SDS011;65881;52.438;16.744;2023-05-16T07:55:09;13.80;;;11.10;;
76935;SDS011;65881;52.438;16.744;2023-05-16T07:57:35;10.52;;;9.43;;
76935;SDS011;65881;52.438;16.744;2023-05-16T08:00:01;11.88;;;9.68;;
76935;SDS011;65881;52.438;16.744;2023-05-16T08:02:29;11.65;;;9.32;;
76935;SDS011;65881;52.438;16.744;2023-05-16T08:04:55;10.38;;;9.38;;
76935;SDS011;65881;52.438;16.744;2023-05-16T08:07:21;11.32;;;8.95;;
76935;SDS011;65881;52.438;16.744;2023-05-16T08:09:48;10.30;;;8.90;;
76935;SDS011;65881;52.438;16.744;2023-05-16T08:12:13;10.38;;;9.30;;
76935;SDS011;65881;52.438;16.744;2023-05-16T08:14:39;10.77;;;8.85;;
76935;SDS011;65881;52.438;16.744;2023-05-16T08:17:05;11.27;;;10.18;;
76935;SDS011;65881;52.438;16.744;2023-05-16T08:19:32;10.18;;;9.13;;
76935;SDS011;65881;52.438;16.744;2023-05-16T08:21:58;9.95;;;8.95;;
76935;SDS011;65881;52.438;16.744;2023-05-16T08:24:26;10.40;;;9.48;;
76935;SDS011;65881;52.438;16.744;2023-05-16T08:26:52;10.85;;;9.80;;
76935;SDS011;65881;52.438;16.744;2023-05-16T08:29:17;10.85;;;9.07;;
76935;SDS011;65881;52.438;16.744;2023-05-16T08:31:43;10.05;;;9.15;;
76935;SDS011;65881;52.438;16.744;2023-05-16T08:34:09;10.75;;;9.32;;
76935;SDS011;65881;52.438;16.744;2023-05-16T08:36:37;9.38;;;8.48;;
76935;SDS011;65881;52.438;16.744;2023-05-16T08:39:03;8.63;;;7.85;;
76935;SDS011;65881;52.438;16.744;2023-05-16T08:41:29;10.63;;;7.75;;
76935;SDS011;65881;52.438;16.744;2023-05-16T08:43:57;9.43;;;8.52;;
76935;SDS011;65881;52.438;16.744;2023-05-16T08:46:23;8.57;;;7.78;;
76935;SDS011;65881;52.438;16.744;2023-05-16T08:48:52;10.38;;;7.53;;
76935;SDS011;65881;52.438;16.744;2023-05-16T08:51:23;8.60;;;7.80;;
76935;SDS011;65881;52.438;16.744;2023-05-16T08:53:56;8.50;;;7.70;;
76935;SDS011;65881;52.438;16.744;2023-05-16T08:58:52;9.82;;;6.63;;
76935;SDS011;65881;52.438;16.744;2023-05-16T09:01:20;8.93;;;7.20;;
76935;SDS011;65881;52.438;16.744;2023-05-16T09:03:47;7.70;;;6.95;;
76935;SDS011;65881;52.438;16.744;2023-05-16T09:06:16;8.10;;;6.97;;
76935;SDS011;65881;52.438;16.744;2023-05-16T09:08:42;7.38;;;6.47;;
76935;SDS011;65881;52.438;16.744;2023-05-16T09:11:08;7.13;;;6.43;;
76935;SDS011;65881;52.438;16.744;2023-05-16T09:13:34;9.52;;;6.47;;
76935;SDS011;65881;52.438;16.744;2023-05-16T09:16:08;7.95;;;6.25;;
76935;SDS011;65881;52.438;16.744;2023-05-16T09:18:33;7.07;;;6.40;;
76935;SDS011;65881;52.438;16.744;2023-05-16T09:21:06;7.85;;;7.00;;
76935;SDS011;65881;52.438;16.744;2023-05-16T09:23:32;8.25;;;7.00;;
76935;SDS011;65881;52.438;16.744;2023-05-16T09:25:59;9.73;;;7.40;;
76935;SDS011;65881;52.438;16.744;2023-05-16T09:28:25;7.22;;;6.40;;
76935;SDS011;65881;52.438;16.744;2023-05-16T09:30:51;6.53;;;5.93;;
76935;SDS011;65881;52.438;16.744;2023-05-16T09:33:19;7.07;;;6.10;;
76935;SDS011;65881;52.438;16.744;2023-05-16T09:35:53;8.20;;;6.55;;
76935;SDS011;65881;52.438;16.744;2023-05-16T09:38:23;7.97;;;7.05;;
76935;SDS011;65881;52.438;16.744;2023-05-16T09:40:50;9.07;;;7.15;;
76935;SDS011;65881;52.438;16.744;2023-05-16T09:43:16;9.85;;;7.93;;
76935;SDS011;65881;52.438;16.744;2023-05-16T09:45:46;8.20;;;7.35;;
76935;SDS011;65881;52.438;16.744;2023-05-16T09:48:13;10.32;;;8.52;;
76935;SDS011;65881;52.438;16.744;2023-05-16T09:50:40;8.27;;;7.47;;
76935;SDS011;65881;52.438;16.744;2023-05-16T09:53:10;9.10;;;8.20;;
76935;SDS011;65881;52.438;16.744;2023-05-16T09:55:38;9.68;;;8.68;;
76935;SDS011;65881;52.438;16.744;2023-05-16T09:58:03;12.63;;;8.48;;
76935;SDS011;65881;52.438;16.744;2023-05-16T10:00:32;8.90;;;8.00;;
76935;SDS011;65881;52.438;16.744;2023-05-16T10:02:58;9.60;;;7.97;;
76935;SDS011;65881;52.438;16.744;2023-05-16T10:05:25;10.50;;;9.52;;
76935;SDS011;65881;52.438;16.744;2023-05-16T10:07:55;10.88;;;9.85;;
76935;SDS011;65881;52.438;16.744;2023-05-16T10:10:22;11.68;;;10.35;;
76935;SDS011;65881;52.438;16.744;2023-05-16T10:12:52;10.20;;;9.20;;
76935;SDS011;65881;52.438;16.744;2023-05-16T10:15:22;10.63;;;8.73;;
76935;SDS011;65881;52.438;16.744;2023-05-16T10:17:49;11.82;;;9.88;;
76935;SDS011;65881;52.438;16.744;2023-05-16T10:20:17;10.55;;;9.45;;
76935;SDS011;65881;52.438;16.744;2023-05-16T10:22:44;13.85;;;9.18;;
76935;SDS011;65881;52.438;16.744;2023-05-16T10:28:07;14.40;;;10.63;;
76935;SDS011;65881;52.438;16.744;2023-05-16T10:30:33;13.15;;;11.85;;
76935;SDS011;65881;52.438;16.744;2023-05-16T10:33:00;10.75;;;9.65;;
76935;SDS011;65881;52.438;16.744;2023-05-16T10:35:28;11.63;;;10.52;;
76935;SDS011;65881;52.438;16.744;2023-05-16T10:37:55;14.15;;;11.52;;
76935;SDS011;65881;52.438;16.744;2023-05-16T10:40:21;13.10;;;11.70;;
76935;SDS011;65881;52.438;16.744;2023-05-16T10:42:55;11.43;;;10.30;;
76935;SDS011;65881;52.438;16.744;2023-05-16T10:45:22;16.15;;;11.75;;
76935;SDS011;65881;52.438;16.744;2023-05-16T10:53:16;12.63;;;11.27;;
76935;SDS011;65881;52.438;16.744;2023-05-16T11:17:09;12.60;;;10.98;;
76935;SDS011;65881;52.438;16.744;2023-05-16T11:19:43;13.00;;;10.40;;
76935;SDS011;65881;52.438;16.744;2023-05-16T11:22:11;15.43;;;12.32;;
76935;SDS011;65881;52.438;16.744;2023-05-16T11:28:05;16.02;;;11.25;;
76935;SDS011;65881;52.438;16.744;2023-05-16T11:30:14;13.02;;;11.10;;
76935;SDS011;65881;52.438;16.744;2023-05-16T11:32:44;12.95;;;11.60;;
76935;SDS011;65881;52.438;16.744;2023-05-16T11:35:11;17.73;;;12.68;;
76935;SDS011;65881;52.438;16.744;2023-05-16T11:37:39;11.88;;;10.68;;
76935;SDS011;65881;52.438;16.744;2023-05-16T11:40:08;13.90;;;10.75;;
76935;SDS011;65881;52.438;16.744;2023-05-16T11:42:36;15.55;;;12.45;;
76935;SDS011;65881;52.438;16.744;2023-05-16T11:45:06;14.65;;;11.57;;
76935;SDS011;65881;52.438;16.744;2023-05-16T11:47:36;16.25;;;11.68;;
76935;SDS011;65881;52.438;16.744;2023-05-16T11:50:05;18.33;;;12.88;;
76935;SDS011;65881;52.438;16.744;2023-05-16T11:52:44;15.18;;;12.02;;
76935;SDS011;65881;52.438;16.744;2023-05-16T11:55:12;14.48;;;12.23;;
76935;SDS011;65881;52.438;16.744;2023-05-16T11:57:39;16.88;;;12.70;;
76935;SDS011;65881;52.438;16.744;2023-05-16T12:00:14;13.50;;;12.10;;
76935;SDS011;65881;52.438;16.744;2023-05-16T12:02:42;16.92;;;13.70;;
76935;SDS011;65881;52.438;16.744;2023-05-16T12:05:09;15.23;;;13.63;;
76935;SDS011;65881;52.438;16.744;2023-05-16T12:07:35;14.85;;;13.25;;
76935;SDS011;65881;52.438;16.744;2023-05-16T12:10:08;17.65;;;13.77;;
76935;SDS011;65881;52.438;16.744;2023-05-16T12:12:35;17.17;;;13.40;;
76935;SDS011;65881;52.438;16.744;2023-05-16T12:15:02;15.63;;;13.80;;
76935;SDS011;65881;52.438;16.744;2023-05-16T12:17:42;16.73;;;14.93;;
76935;SDS011;65881;52.438;16.744;2023-05-16T12:20:09;14.55;;;13.05;;
76935;SDS011;65881;52.438;16.744;2023-05-16T12:22:40;15.68;;;12.75;;
76935;SDS011;65881;52.438;16.744;2023-05-16T12:28:02;15.48;;;13.95;;
76935;SDS011;65881;52.438;16.744;2023-05-16T12:30:29;18.98;;;13.60;;
76935;SDS011;65881;52.438;16.744;2023-05-16T12:32:56;17.90;;;14.20;;
76935;SDS011;65881;52.438;16.744;2023-05-16T12:35:29;17.67;;;12.90;;
76935;SDS011;65881;52.438;16.744;2023-05-16T12:40:22;16.60;;;13.57;;
76935;SDS011;65881;52.438;16.744;2023-05-16T12:45:17;17.08;;;13.13;;
76935;SDS011;65881;52.438;16.744;2023-05-16T12:47:45;16.67;;;12.20;;
76935;SDS011;65881;52.438;16.744;2023-05-16T12:50:11;15.10;;;11.77;;
76935;SDS011;65881;52.438;16.744;2023-05-16T12:52:49;15.07;;;12.93;;
76935;SDS011;65881;52.438;16.744;2023-05-16T12:55:19;14.75;;;12.95;;
76935;SDS011;65881;52.438;16.744;2023-05-16T12:57:46;16.15;;;12.68;;
76935;SDS011;65881;52.438;16.744;2023-05-16T13:00:14;17.05;;;13.10;;
76935;SDS011;65881;52.438;16.744;2023-05-16T13:02:43;17.85;;;12.85;;
76935;SDS011;65881;52.438;16.744;2023-05-16T13:05:09;16.40;;;13.10;;
76935;SDS011;65881;52.438;16.744;2023-05-16T13:07:36;14.02;;;12.52;;
76935;SDS011;65881;52.438;16.744;2023-05-16T13:10:17;16.45;;;13.77;;
76935;SDS011;65881;52.438;16.744;2023-05-16T13:12:46;17.83;;;14.15;;
76935;SDS011;65881;52.438;16.744;2023-05-16T13:15:12;18.75;;;15.07;;
76935;SDS011;65881;52.438;16.744;2023-05-16T13:17:39;15.82;;;13.43;;
76935;SDS011;65881;52.438;16.744;2023-05-16T13:20:06;21.38;;;13.10;;
76935;SDS011;65881;52.438;16.744;2023-05-16T13:22:34;17.58;;;13.93;;
76935;SDS011;65881;52.438;16.744;2023-05-16T13:25:00;19.98;;;14.60;;
76935;SDS011;65881;52.438;16.744;2023-05-16T13:27:28;19.88;;;14.30;;
76935;SDS011;65881;52.438;16.744;2023-05-16T13:29:54;22.23;;;15.55;;
76935;SDS011;65881;52.438;16.744;2023-05-16T13:32:20;18.48;;;15.27;;
76935;SDS011;65881;52.438;16.744;2023-05-16T13:34:49;23.45;;;17.83;;
76935;SDS011;65881;52.438;16.744;2023-05-16T13:37:16;20.02;;;16.42;;
76935;SDS011;65881;52.438;16.744;2023-05-16T13:39:42;23.55;;;15.55;;
76935;SDS011;65881;52.438;16.744;2023-05-16T13:42:08;18.25;;;15.07;;
76935;SDS011;65881;52.438;16.744;2023-05-16T13:44:34;23.27;;;16.77;;
76935;SDS011;65881;52.438;16.744;2023-05-16T13:46:59;22.10;;;15.95;;
76935;SDS011;65881;52.438;16.744;2023-05-16T13:49:25;24.25;;;16.75;;
76935;SDS011;65881;52.438;16.744;2023-05-16T13:51:54;23.50;;;17.15;;
76935;SDS011;65881;52.438;16.744;2023-05-16T13:54:23;25.95;;;16.77;;
76935;SDS011;65881;52.438;16.744;2023-05-16T13:56:48;23.30;;;16.35;;
76935;SDS011;65881;52.438;16.744;2023-05-16T13:59:14;23.20;;;15.90;;
76935;SDS011;65881;52.438;16.744;2023-05-16T14:01:40;20.95;;;14.20;;
76935;SDS011;65881;52.438;16.744;2023-05-16T14:04:12;22.08;;;15.13;;
76935;SDS011;65881;52.438;16.744;2023-05-16T14:06:37;21.48;;;15.23;;
76935;SDS011;65881;52.438;16.744;2023-05-16T14:09:06;23.10;;;16.15;;
76935;SDS011;65881;52.438;16.744;2023-05-16T14:11:32;19.35;;;14.45;;
76935;SDS011;65881;52.438;16.744;2023-05-16T14:14:00;21.05;;;14.10;;
76935;SDS011;65881;52.438;16.744;2023-05-16T14:16:27;17.55;;;13.48;;
76935;SDS011;65881;52.438;16.744;2023-05-16T14:18:53;21.25;;;12.82;;
76935;SDS011;65881;52.438;16.744;2023-05-16T14:21:18;19.08;;;13.73;;
76935;SDS011;65881;52.438;16.744;2023-05-16T14:23:44;15.07;;;11.43;;
76935;SDS011;65881;52.438;16.744;2023-05-16T14:26:10;16.05;;;11.15;;
76935;SDS011;65881;52.438;16.744;2023-05-16T14:28:36;14.82;;;10.77;;
76935;SDS011;65881;52.438;16.744;2023-05-16T14:31:02;15.80;;;11.10;;
76935;SDS011;65881;52.438;16.744;2023-05-16T14:33:27;16.48;;;12.32;;
76935;SDS011;65881;52.438;16.744;2023-05-16T14:35:54;13.48;;;10.93;;
76935;SDS011;65881;52.438;16.744;2023-05-16T14:38:29;14.63;;;11.27;;
76935;SDS011;65881;52.438;16.744;2023-05-16T14:40:55;23.35;;;12.60;;
76935;SDS011;65881;52.438;16.744;2023-05-16T14:43:24;18.75;;;10.98;;
76935;SDS011;65881;52.438;16.744;2023-05-16T14:45:53;16.75;;;11.45;;
76935;SDS011;65881;52.438;16.744;2023-05-16T14:48:21;16.48;;;12.05;;
76935;SDS011;65881;52.438;16.744;2023-05-16T14:50:47;17.63;;;11.15;;
76935;SDS011;65881;52.438;16.744;2023-05-16T14:53:13;17.95;;;12.32;;
76935;SDS011;65881;52.438;16.744;2023-05-16T14:55:39;18.77;;;13.40;;
76935;SDS011;65881;52.438;16.744;2023-05-16T14:58:05;21.20;;;14.15;;
76935;SDS011;65881;52.438;16.744;2023-05-16T15:00:30;21.95;;;13.40;;
76935;SDS011;65881;52.438;16.744;2023-05-16T15:02:56;19.83;;;14.20;;
76935;SDS011;65881;52.438;16.744;2023-05-16T15:05:22;21.00;;;15.48;;
76935;SDS011;65881;52.438;16.744;2023-05-16T15:07:49;22.88;;;16.38;;